sensor_id;sensor_type;location;lat;lon;timestamp;P1;durP1;ratioP1;P2;durP2;ratioP2
52964;SDS011;42923;53.220;6.528;2024-03-17T00:00:22;18.10;;;10.40;;
52964;SDS011;42923;53.220;6.528;2024-03-17T00:02:48;18.38;;;9.98;;
52964;SDS011;42923;53.220;6.528;2024-03-17T00:05:14;17.15;;;9.38;;
52964;SDS011;42923;53.220;6.528;2024-03-17T00:07:40;18.50;;;8.57;;
52964;SDS011;42923;53.220;6.528;2024-03-17T00:10:06;18.73;;;9.25;;
52964;SDS011;42923;53.220;6.528;2024-03-17T00:12:36;15.00;;;7.97;;
52964;SDS011;42923;53.220;6.528;2024-03-17T00:15:02;13.93;;;7.68;;
52964;SDS011;42923;53.220;6.528;2024-03-17T00:17:29;14.23;;;8.10;;
52964;SDS011;42923;53.220;6.528;2024-03-17T00:19:55;17.33;;;8.40;;
52964;SDS011;42923;53.220;6.528;2024-03-17T00:22:20;16.52;;;8.45;;
52964;SDS011;42923;53.220;6.528;2024-03-17T00:24:46;18.33;;;8.60;;
52964;SDS011;42923;53.220;6.528;2024-03-17T00:27:12;14.77;;;7.93;;
52964;SDS011;42923;53.220;6.528;2024-03-17T00:29:38;12.98;;;7.47;;
52964;SDS011;42923;53.220;6.528;2024-03-17T00:32:04;14.57;;;7.53;;
52964;SDS011;42923;53.220;6.528;2024-03-17T00:34:31;16.42;;;8.10;;
52964;SDS011;42923;53.220;6.528;2024-03-17T00:36:57;20.50;;;8.30;;
52964;SDS011;42923;53.220;6.528;2024-03-17T00:39:24;17.80;;;8.55;;
52964;SDS011;42923;53.220;6.528;2024-03-17T00:41:50;16.77;;;8.32;;
52964;SDS011;42923;53.220;6.528;2024-03-17T00:44:16;15.45;;;8.20;;
52964;SDS011;42923;53.220;6.528;2024-03-17T00:46:42;18.17;;;8.30;;
52964;SDS011;42923;53.220;6.528;2024-03-17T00:49:08;17.42;;;8.20;;
52964;SDS011;42923;53.220;6.528;2024-03-17T00:51:35;16.00;;;9.18;;
52964;SDS011;42923;53.220;6.528;2024-03-17T00:54:01;16.95;;;8.68;;
52964;SDS011;42923;53.220;6.528;2024-03-17T00:56:27;13.43;;;8.43;;
52964;SDS011;42923;53.220;6.528;2024-03-17T00:58:53;16.20;;;8.93;;
52964;SDS011;42923;53.220;6.528;2024-03-17T01:01:19;15.05;;;8.63;;
52964;SDS011;42923;53.220;6.528;2024-03-17T01:03:45;16.67;;;8.80;;
52964;SDS011;42923;53.220;6.528;2024-03-17T01:06:11;14.67;;;8.20;;
52964;SDS011;42923;53.220;6.528;2024-03-17T01:08:36;16.00;;;8.10;;
52964;SDS011;42923;53.220;6.528;2024-03-17T01:11:02;14.80;;;7.90;;
52964;SDS011;42923;53.220;6.528;2024-03-17T01:13:28;13.23;;;7.63;;
52964;SDS011;42923;53.220;6.528;2024-03-17T01:15:54;13.52;;;8.55;;
52964;SDS011;42923;53.220;6.528;2024-03-17T01:18:19;20.65;;;7.95;;
52964;SDS011;42923;53.220;6.528;2024-03-17T01:20:45;18.00;;;7.88;;
52964;SDS011;42923;53.220;6.528;2024-03-17T01:23:11;16.30;;;7.97;;
52964;SDS011;42923;53.220;6.528;2024-03-17T01:25:38;21.52;;;8.52;;
52964;SDS011;42923;53.220;6.528;2024-03-17T01:28:04;15.13;;;7.57;;
52964;SDS011;42923;53.220;6.528;2024-03-17T01:30:30;15.43;;;7.63;;
52964;SDS011;42923;53.220;6.528;2024-03-17T01:32:57;15.32;;;7.70;;
52964;SDS011;42923;53.220;6.528;2024-03-17T01:35:25;14.02;;;7.60;;
52964;SDS011;42923;53.220;6.528;2024-03-17T01:37:51;14.83;;;8.17;;
52964;SDS011;42923;53.220;6.528;2024-03-17T01:40:17;11.97;;;7.77;;
52964;SDS011;42923;53.220;6.528;2024-03-17T01:42:42;12.73;;;7.30;;
52964;SDS011;42923;53.220;6.528;2024-03-17T01:47:54;14.27;;;7.03;;
52964;SDS011;42923;53.220;6.528;2024-03-17T01:50:25;14.73;;;7.95;;
52964;SDS011;42923;53.220;6.528;2024-03-17T01:52:52;15.35;;;7.20;;
52964;SDS011;42923;53.220;6.528;2024-03-17T01:55:21;12.95;;;7.03;;
52964;SDS011;42923;53.220;6.528;2024-03-17T01:57:50;13.93;;;7.45;;
52964;SDS011;42923;53.220;6.528;2024-03-17T02:00:17;14.60;;;7.63;;
52964;SDS011;42923;53.220;6.528;2024-03-17T02:02:43;18.08;;;8.95;;
52964;SDS011;42923;53.220;6.528;2024-03-17T02:05:09;14.88;;;8.20;;
52964;SDS011;42923;53.220;6.528;2024-03-17T02:07:35;16.95;;;7.70;;
52964;SDS011;42923;53.220;6.528;2024-03-17T02:10:01;14.38;;;7.70;;
52964;SDS011;42923;53.220;6.528;2024-03-17T02:12:29;14.05;;;7.88;;
52964;SDS011;42923;53.220;6.528;2024-03-17T02:14:57;11.48;;;7.13;;
52964;SDS011;42923;53.220;6.528;2024-03-17T02:17:25;14.27;;;7.68;;
52964;SDS011;42923;53.220;6.528;2024-03-17T02:19:53;11.57;;;7.10;;
52964;SDS011;42923;53.220;6.528;2024-03-17T02:22:19;11.50;;;7.83;;
52964;SDS011;42923;53.220;6.528;2024-03-17T02:24:45;16.45;;;8.02;;
52964;SDS011;42923;53.220;6.528;2024-03-17T02:27:11;9.55;;;6.30;;
52964;SDS011;42923;53.220;6.528;2024-03-17T02:29:37;15.35;;;7.22;;
52964;SDS011;42923;53.220;6.528;2024-03-17T02:32:04;16.88;;;7.55;;
52964;SDS011;42923;53.220;6.528;2024-03-17T02:34:36;12.73;;;6.60;;
52964;SDS011;42923;53.220;6.528;2024-03-17T02:37:03;11.88;;;6.30;;
52964;SDS011;42923;53.220;6.528;2024-03-17T02:39:30;16.05;;;6.78;;
52964;SDS011;42923;53.220;6.528;2024-03-17T02:41:59;11.43;;;6.35;;
52964;SDS011;42923;53.220;6.528;2024-03-17T02:44:26;11.52;;;6.70;;
52964;SDS011;42923;53.220;6.528;2024-03-17T02:46:52;10.93;;;6.38;;
52964;SDS011;42923;53.220;6.528;2024-03-17T02:49:18;13.05;;;7.25;;
52964;SDS011;42923;53.220;6.528;2024-03-17T02:51:43;11.83;;;5.87;;
52964;SDS011;42923;53.220;6.528;2024-03-17T02:54:09;11.35;;;6.13;;
52964;SDS011;42923;53.220;6.528;2024-03-17T02:56:35;11.23;;;5.97;;
52964;SDS011;42923;53.220;6.528;2024-03-17T02:59:00;15.32;;;6.90;;
52964;SDS011;42923;53.220;6.528;2024-03-17T03:01:26;13.75;;;7.60;;
52964;SDS011;42923;53.220;6.528;2024-03-17T03:03:52;10.90;;;7.00;;
52964;SDS011;42923;53.220;6.528;2024-03-17T03:06:17;15.38;;;7.38;;
52964;SDS011;42923;53.220;6.528;2024-03-17T03:08:44;13.88;;;7.55;;
52964;SDS011;42923;53.220;6.528;2024-03-17T03:11:14;11.95;;;7.68;;
52964;SDS011;42923;53.220;6.528;2024-03-17T03:13:41;13.45;;;6.57;;
52964;SDS011;42923;53.220;6.528;2024-03-17T03:16:09;11.60;;;7.03;;
52964;SDS011;42923;53.220;6.528;2024-03-17T03:18:36;13.55;;;7.80;;
52964;SDS011;42923;53.220;6.528;2024-03-17T03:21:04;9.95;;;7.13;;
52964;SDS011;42923;53.220;6.528;2024-03-17T03:23:30;13.10;;;7.47;;
52964;SDS011;42923;53.220;6.528;2024-03-17T03:26:00;15.23;;;7.40;;
52964;SDS011;42923;53.220;6.528;2024-03-17T03:28:31;10.65;;;6.72;;
52964;SDS011;42923;53.220;6.528;2024-03-17T03:30:58;13.02;;;6.53;;
52964;SDS011;42923;53.220;6.528;2024-03-17T03:33:24;11.27;;;6.18;;
52964;SDS011;42923;53.220;6.528;2024-03-17T03:35:50;11.45;;;6.00;;
52964;SDS011;42923;53.220;6.528;2024-03-17T03:38:16;10.85;;;5.75;;
52964;SDS011;42923;53.220;6.528;2024-03-17T03:40:43;12.33;;;5.30;;
52964;SDS011;42923;53.220;6.528;2024-03-17T03:43:09;9.85;;;4.90;;
52964;SDS011;42923;53.220;6.528;2024-03-17T03:45:36;11.05;;;4.95;;
52964;SDS011;42923;53.220;6.528;2024-03-17T03:48:02;8.35;;;5.10;;
52964;SDS011;42923;53.220;6.528;2024-03-17T03:50:28;8.02;;;4.80;;
52964;SDS011;42923;53.220;6.528;2024-03-17T03:52:54;9.05;;;4.60;;
52964;SDS011;42923;53.220;6.528;2024-03-17T03:55:20;8.75;;;4.78;;
52964;SDS011;42923;53.220;6.528;2024-03-17T03:57:46;10.80;;;4.70;;
52964;SDS011;42923;53.220;6.528;2024-03-17T04:00:13;10.73;;;4.22;;
52964;SDS011;42923;53.220;6.528;2024-03-17T04:02:43;7.90;;;4.18;;
52964;SDS011;42923;53.220;6.528;2024-03-17T04:05:09;7.47;;;3.97;;
52964;SDS011;42923;53.220;6.528;2024-03-17T04:07:36;10.20;;;4.38;;
52964;SDS011;42923;53.220;6.528;2024-03-17T04:10:03;7.60;;;3.90;;
52964;SDS011;42923;53.220;6.528;2024-03-17T04:12:29;7.90;;;3.70;;
52964;SDS011;42923;53.220;6.528;2024-03-17T04:14:59;6.18;;;3.90;;
52964;SDS011;42923;53.220;6.528;2024-03-17T04:17:25;8.80;;;4.20;;
52964;SDS011;42923;53.220;6.528;2024-03-17T04:19:52;5.90;;;3.60;;
52964;SDS011;42923;53.220;6.528;2024-03-17T04:22:19;8.90;;;3.72;;
52964;SDS011;42923;53.220;6.528;2024-03-17T04:24:47;8.15;;;3.35;;
52964;SDS011;42923;53.220;6.528;2024-03-17T04:27:21;6.83;;;3.80;;
52964;SDS011;42923;53.220;6.528;2024-03-17T04:29:54;7.50;;;3.70;;
52964;SDS011;42923;53.220;6.528;2024-03-17T04:32:20;10.55;;;4.03;;
52964;SDS011;42923;53.220;6.528;2024-03-17T04:34:47;10.43;;;4.22;;
52964;SDS011;42923;53.220;6.528;2024-03-17T04:37:13;7.10;;;3.72;;
52964;SDS011;42923;53.220;6.528;2024-03-17T04:39:39;7.43;;;3.63;;
52964;SDS011;42923;53.220;6.528;2024-03-17T04:42:05;7.35;;;3.58;;
52964;SDS011;42923;53.220;6.528;2024-03-17T04:44:32;9.35;;;3.70;;
52964;SDS011;42923;53.220;6.528;2024-03-17T04:46:57;6.53;;;3.60;;
52964;SDS011;42923;53.220;6.528;2024-03-17T04:49:23;10.05;;;3.65;;
52964;SDS011;42923;53.220;6.528;2024-03-17T04:51:49;9.07;;;3.88;;
52964;SDS011;42923;53.220;6.528;2024-03-17T04:54:14;8.40;;;3.08;;
52964;SDS011;42923;53.220;6.528;2024-03-17T04:56:41;8.77;;;3.75;;
52964;SDS011;42923;53.220;6.528;2024-03-17T04:59:06;9.10;;;3.75;;
52964;SDS011;42923;53.220;6.528;2024-03-17T05:01:32;8.93;;;2.93;;
52964;SDS011;42923;53.220;6.528;2024-03-17T05:04:04;6.70;;;3.40;;
52964;SDS011;42923;53.220;6.528;2024-03-17T05:06:30;5.50;;;3.20;;
52964;SDS011;42923;53.220;6.528;2024-03-17T05:08:56;7.78;;;3.45;;
52964;SDS011;42923;53.220;6.528;2024-03-17T05:11:22;8.25;;;3.40;;
52964;SDS011;42923;53.220;6.528;2024-03-17T05:13:49;6.68;;;3.42;;
52964;SDS011;42923;53.220;6.528;2024-03-17T05:16:14;7.17;;;3.40;;
52964;SDS011;42923;53.220;6.528;2024-03-17T05:18:41;6.75;;;3.63;;
52964;SDS011;42923;53.220;6.528;2024-03-17T05:21:07;12.88;;;3.97;;
52964;SDS011;42923;53.220;6.528;2024-03-17T05:23:34;7.97;;;3.58;;
52964;SDS011;42923;53.220;6.528;2024-03-17T05:26:02;9.27;;;3.20;;
52964;SDS011;42923;53.220;6.528;2024-03-17T05:28:29;6.75;;;3.20;;
52964;SDS011;42923;53.220;6.528;2024-03-17T05:30:56;6.28;;;3.70;;
52964;SDS011;42923;53.220;6.528;2024-03-17T05:33:22;7.40;;;3.53;;
52964;SDS011;42923;53.220;6.528;2024-03-17T05:35:56;9.52;;;3.33;;
52964;SDS011;42923;53.220;6.528;2024-03-17T05:38:23;8.70;;;3.25;;
52964;SDS011;42923;53.220;6.528;2024-03-17T05:41:02;9.73;;;3.37;;
52964;SDS011;42923;53.220;6.528;2024-03-17T05:43:35;8.95;;;3.13;;
52964;SDS011;42923;53.220;6.528;2024-03-17T05:46:06;7.47;;;3.20;;
52964;SDS011;42923;53.220;6.528;2024-03-17T05:48:33;6.60;;;3.23;;
52964;SDS011;42923;53.220;6.528;2024-03-17T05:51:04;5.90;;;3.45;;
52964;SDS011;42923;53.220;6.528;2024-03-17T05:53:30;7.03;;;3.42;;
52964;SDS011;42923;53.220;6.528;2024-03-17T05:56:03;8.32;;;3.90;;
52964;SDS011;42923;53.220;6.528;2024-03-17T05:58:29;9.77;;;3.50;;
52964;SDS011;42923;53.220;6.528;2024-03-17T06:00:55;7.55;;;3.80;;
52964;SDS011;42923;53.220;6.528;2024-03-17T06:03:21;9.02;;;4.07;;
52964;SDS011;42923;53.220;6.528;2024-03-17T06:05:47;9.55;;;3.97;;
52964;SDS011;42923;53.220;6.528;2024-03-17T06:08:14;7.57;;;3.95;;
52964;SDS011;42923;53.220;6.528;2024-03-17T06:10:44;9.13;;;4.15;;
52964;SDS011;42923;53.220;6.528;2024-03-17T06:13:11;8.85;;;4.03;;
52964;SDS011;42923;53.220;6.528;2024-03-17T06:15:38;7.10;;;4.10;;
52964;SDS011;42923;53.220;6.528;2024-03-17T06:18:05;11.18;;;5.07;;
52964;SDS011;42923;53.220;6.528;2024-03-17T06:20:34;9.40;;;4.80;;
52964;SDS011;42923;53.220;6.528;2024-03-17T06:23:00;11.30;;;4.60;;
52964;SDS011;42923;53.220;6.528;2024-03-17T06:25:26;11.38;;;4.38;;
52964;SDS011;42923;53.220;6.528;2024-03-17T06:27:53;12.18;;;4.45;;
52964;SDS011;42923;53.220;6.528;2024-03-17T06:30:19;10.70;;;4.53;;
52964;SDS011;42923;53.220;6.528;2024-03-17T06:32:46;11.63;;;4.57;;
52964;SDS011;42923;53.220;6.528;2024-03-17T06:35:12;8.60;;;4.47;;
52964;SDS011;42923;53.220;6.528;2024-03-17T06:37:41;8.68;;;4.07;;
52964;SDS011;42923;53.220;6.528;2024-03-17T06:40:08;8.85;;;4.45;;
52964;SDS011;42923;53.220;6.528;2024-03-17T06:42:39;12.20;;;5.00;;
52964;SDS011;42923;53.220;6.528;2024-03-17T06:45:05;11.90;;;5.00;;
52964;SDS011;42923;53.220;6.528;2024-03-17T06:47:34;11.17;;;4.77;;
52964;SDS011;42923;53.220;6.528;2024-03-17T06:50:03;10.38;;;4.93;;
52964;SDS011;42923;53.220;6.528;2024-03-17T06:52:30;11.47;;;5.13;;
52964;SDS011;42923;53.220;6.528;2024-03-17T06:54:58;11.98;;;5.43;;
52964;SDS011;42923;53.220;6.528;2024-03-17T06:57:24;12.93;;;5.35;;
52964;SDS011;42923;53.220;6.528;2024-03-17T06:59:50;12.93;;;4.90;;
52964;SDS011;42923;53.220;6.528;2024-03-17T07:02:16;12.38;;;4.95;;
52964;SDS011;42923;53.220;6.528;2024-03-17T07:04:46;14.05;;;4.80;;
52964;SDS011;42923;53.220;6.528;2024-03-17T07:07:12;11.75;;;5.22;;
52964;SDS011;42923;53.220;6.528;2024-03-17T07:09:39;10.55;;;4.80;;
52964;SDS011;42923;53.220;6.528;2024-03-17T07:12:09;11.98;;;5.50;;
52964;SDS011;42923;53.220;6.528;2024-03-17T07:14:36;10.90;;;5.00;;
52964;SDS011;42923;53.220;6.528;2024-03-17T07:17:02;14.82;;;4.60;;
52964;SDS011;42923;53.220;6.528;2024-03-17T07:19:29;9.52;;;4.20;;
52964;SDS011;42923;53.220;6.528;2024-03-17T07:21:56;10.75;;;4.63;;
52964;SDS011;42923;53.220;6.528;2024-03-17T07:24:22;10.57;;;3.70;;
52964;SDS011;42923;53.220;6.528;2024-03-17T07:26:48;11.50;;;4.45;;
52964;SDS011;42923;53.220;6.528;2024-03-17T07:29:14;9.07;;;3.67;;
52964;SDS011;42923;53.220;6.528;2024-03-17T07:31:40;9.75;;;3.75;;
52964;SDS011;42923;53.220;6.528;2024-03-17T07:34:06;14.20;;;4.57;;
52964;SDS011;42923;53.220;6.528;2024-03-17T07:36:32;10.50;;;4.50;;
52964;SDS011;42923;53.220;6.528;2024-03-17T07:38:58;8.23;;;3.60;;
52964;SDS011;42923;53.220;6.528;2024-03-17T07:41:23;9.70;;;4.00;;
52964;SDS011;42923;53.220;6.528;2024-03-17T07:43:50;11.05;;;4.05;;
52964;SDS011;42923;53.220;6.528;2024-03-17T07:46:15;10.15;;;3.88;;
52964;SDS011;42923;53.220;6.528;2024-03-17T07:48:42;10.88;;;3.80;;
52964;SDS011;42923;53.220;6.528;2024-03-17T07:51:09;9.40;;;3.45;;
52964;SDS011;42923;53.220;6.528;2024-03-17T07:53:36;8.35;;;3.15;;
52964;SDS011;42923;53.220;6.528;2024-03-17T07:56:07;10.90;;;4.00;;
52964;SDS011;42923;53.220;6.528;2024-03-17T07:58:37;9.18;;;3.70;;
52964;SDS011;42923;53.220;6.528;2024-03-17T08:01:06;9.55;;;3.30;;
52964;SDS011;42923;53.220;6.528;2024-03-17T08:03:34;10.02;;;3.80;;
52964;SDS011;42923;53.220;6.528;2024-03-17T08:06:02;8.30;;;3.47;;
52964;SDS011;42923;53.220;6.528;2024-03-17T08:08:31;10.13;;;3.45;;
52964;SDS011;42923;53.220;6.528;2024-03-17T08:10:57;8.45;;;3.45;;
52964;SDS011;42923;53.220;6.528;2024-03-17T08:13:23;9.70;;;3.20;;
52964;SDS011;42923;53.220;6.528;2024-03-17T08:15:57;10.30;;;3.45;;
52964;SDS011;42923;53.220;6.528;2024-03-17T08:18:33;8.40;;;3.03;;
52964;SDS011;42923;53.220;6.528;2024-03-17T08:21:02;9.23;;;3.35;;
52964;SDS011;42923;53.220;6.528;2024-03-17T08:23:29;10.43;;;3.20;;
52964;SDS011;42923;53.220;6.528;2024-03-17T08:25:56;7.77;;;3.27;;
52964;SDS011;42923;53.220;6.528;2024-03-17T08:28:23;10.82;;;3.05;;
52964;SDS011;42923;53.220;6.528;2024-03-17T08:30:53;6.78;;;3.42;;
52964;SDS011;42923;53.220;6.528;2024-03-17T08:33:20;12.27;;;3.70;;
52964;SDS011;42923;53.220;6.528;2024-03-17T08:35:54;7.82;;;3.30;;
52964;SDS011;42923;53.220;6.528;2024-03-17T08:38:24;7.45;;;2.78;;
52964;SDS011;42923;53.220;6.528;2024-03-17T08:40:51;10.82;;;3.60;;
52964;SDS011;42923;53.220;6.528;2024-03-17T08:43:18;9.18;;;3.20;;
52964;SDS011;42923;53.220;6.528;2024-03-17T08:45:45;8.37;;;2.93;;
52964;SDS011;42923;53.220;6.528;2024-03-17T08:48:25;8.13;;;3.67;;
52964;SDS011;42923;53.220;6.528;2024-03-17T08:50:52;9.35;;;3.55;;
52964;SDS011;42923;53.220;6.528;2024-03-17T08:53:18;9.50;;;3.60;;
52964;SDS011;42923;53.220;6.528;2024-03-17T08:55:44;8.15;;;3.17;;
52964;SDS011;42923;53.220;6.528;2024-03-17T08:58:10;7.88;;;3.45;;
52964;SDS011;42923;53.220;6.528;2024-03-17T09:00:36;8.17;;;3.83;;
52964;SDS011;42923;53.220;6.528;2024-03-17T09:03:02;7.37;;;3.60;;
52964;SDS011;42923;53.220;6.528;2024-03-17T09:05:28;9.73;;;4.00;;
52964;SDS011;42923;53.220;6.528;2024-03-17T09:07:54;8.55;;;3.70;;
52964;SDS011;42923;53.220;6.528;2024-03-17T09:10:20;7.32;;;3.72;;
52964;SDS011;42923;53.220;6.528;2024-03-17T09:12:46;10.23;;;4.30;;
52964;SDS011;42923;53.220;6.528;2024-03-17T09:15:12;10.30;;;4.00;;
52964;SDS011;42923;53.220;6.528;2024-03-17T09:17:39;7.53;;;3.90;;
52964;SDS011;42923;53.220;6.528;2024-03-17T09:20:05;8.50;;;3.95;;
52964;SDS011;42923;53.220;6.528;2024-03-17T09:22:37;10.90;;;4.70;;
52964;SDS011;42923;53.220;6.528;2024-03-17T09:25:07;9.25;;;4.50;;
52964;SDS011;42923;53.220;6.528;2024-03-17T09:27:33;11.77;;;4.72;;
52964;SDS011;42923;53.220;6.528;2024-03-17T09:30:02;10.65;;;4.40;;
52964;SDS011;42923;53.220;6.528;2024-03-17T09:32:31;9.02;;;4.43;;
52964;SDS011;42923;53.220;6.528;2024-03-17T09:34:58;9.05;;;4.65;;
52964;SDS011;42923;53.220;6.528;2024-03-17T09:37:24;10.30;;;5.30;;
52964;SDS011;42923;53.220;6.528;2024-03-17T09:39:50;10.90;;;5.83;;
52964;SDS011;42923;53.220;6.528;2024-03-17T09:42:19;9.85;;;5.03;;
52964;SDS011;42923;53.220;6.528;2024-03-17T09:44:48;11.70;;;5.45;;
52964;SDS011;42923;53.220;6.528;2024-03-17T09:47:19;10.70;;;5.60;;
52964;SDS011;42923;53.220;6.528;2024-03-17T09:49:47;9.90;;;5.68;;
52964;SDS011;42923;53.220;6.528;2024-03-17T09:52:18;8.65;;;5.32;;
52964;SDS011;42923;53.220;6.528;2024-03-17T09:54:53;10.30;;;5.53;;
52964;SDS011;42923;53.220;6.528;2024-03-17T09:57:26;7.63;;;5.20;;
52964;SDS011;42923;53.220;6.528;2024-03-17T09:59:54;10.88;;;5.90;;
52964;SDS011;42923;53.220;6.528;2024-03-17T10:02:20;7.55;;;5.05;;
52964;SDS011;42923;53.220;6.528;2024-03-17T10:04:46;10.00;;;5.65;;
52964;SDS011;42923;53.220;6.528;2024-03-17T10:07:13;8.63;;;5.55;;
52964;SDS011;42923;53.220;6.528;2024-03-17T10:09:42;10.88;;;6.00;;
52964;SDS011;42923;53.220;6.528;2024-03-17T10:12:25;9.98;;;5.32;;
52964;SDS011;42923;53.220;6.528;2024-03-17T10:14:57;9.48;;;5.30;;
52964;SDS011;42923;53.220;6.528;2024-03-17T10:17:31;10.63;;;5.82;;
52964;SDS011;42923;53.220;6.528;2024-03-17T10:20:10;8.48;;;5.50;;
52964;SDS011;42923;53.220;6.528;2024-03-17T10:22:38;9.45;;;5.63;;
52964;SDS011;42923;53.220;6.528;2024-03-17T10:25:04;12.23;;;5.53;;
52964;SDS011;42923;53.220;6.528;2024-03-17T10:27:31;10.02;;;6.03;;
52964;SDS011;42923;53.220;6.528;2024-03-17T10:29:57;9.25;;;5.50;;
52964;SDS011;42923;53.220;6.528;2024-03-17T10:32:23;9.20;;;6.15;;
52964;SDS011;42923;53.220;6.528;2024-03-17T10:34:51;8.95;;;6.03;;
52964;SDS011;42923;53.220;6.528;2024-03-17T10:37:17;6.82;;;5.20;;
52964;SDS011;42923;53.220;6.528;2024-03-17T10:39:52;10.23;;;6.00;;
52964;SDS011;42923;53.220;6.528;2024-03-17T10:42:26;11.57;;;6.45;;
52964;SDS011;42923;53.220;6.528;2024-03-17T10:45:01;11.20;;;6.32;;
52964;SDS011;42923;53.220;6.528;2024-03-17T10:47:32;8.02;;;5.20;;
52964;SDS011;42923;53.220;6.528;2024-03-17T10:49:59;11.00;;;6.07;;
52964;SDS011;42923;53.220;6.528;2024-03-17T10:52:32;9.25;;;6.20;;
52964;SDS011;42923;53.220;6.528;2024-03-17T10:55:01;12.32;;;6.85;;
52964;SDS011;42923;53.220;6.528;2024-03-17T11:00:07;9.25;;;6.05;;
52964;SDS011;42923;53.220;6.528;2024-03-17T11:02:34;9.03;;;6.23;;
52964;SDS011;42923;53.220;6.528;2024-03-17T11:05:14;8.50;;;6.55;;
52964;SDS011;42923;53.220;6.528;2024-03-17T11:07:43;9.65;;;6.35;;
52964;SDS011;42923;53.220;6.528;2024-03-17T11:10:20;9.65;;;6.25;;
52964;SDS011;42923;53.220;6.528;2024-03-17T11:12:48;7.88;;;6.72;;
52964;SDS011;42923;53.220;6.528;2024-03-17T11:20:34;10.63;;;7.05;;
52964;SDS011;42923;53.220;6.528;2024-03-17T11:23:02;11.52;;;6.53;;
52964;SDS011;42923;53.220;6.528;2024-03-17T11:28:00;9.73;;;6.78;;
52964;SDS011;42923;53.220;6.528;2024-03-17T11:38:54;10.20;;;6.87;;
52964;SDS011;42923;53.220;6.528;2024-03-17T11:46:44;8.38;;;6.22;;
52964;SDS011;42923;53.220;6.528;2024-03-17T11:49:18;9.05;;;6.57;;
52964;SDS011;42923;53.220;6.528;2024-03-17T11:51:44;8.00;;;5.45;;
52964;SDS011;42923;53.220;6.528;2024-03-17T11:54:33;9.80;;;7.15;;
52964;SDS011;42923;53.220;6.528;2024-03-17T11:57:04;8.63;;;6.80;;
52964;SDS011;42923;53.220;6.528;2024-03-17T11:59:34;8.95;;;6.90;;
52964;SDS011;42923;53.220;6.528;2024-03-17T12:02:00;9.65;;;7.10;;
52964;SDS011;42923;53.220;6.528;2024-03-17T12:04:27;8.40;;;7.10;;
52964;SDS011;42923;53.220;6.528;2024-03-17T12:06:56;10.97;;;7.80;;
52964;SDS011;42923;53.220;6.528;2024-03-17T12:11:51;12.80;;;7.68;;
52964;SDS011;42923;53.220;6.528;2024-03-17T12:14:24;10.70;;;7.93;;
52964;SDS011;42923;53.220;6.528;2024-03-17T12:16:57;8.45;;;7.10;;
52964;SDS011;42923;53.220;6.528;2024-03-17T12:19:26;8.52;;;7.53;;
52964;SDS011;42923;53.220;6.528;2024-03-17T12:21:53;9.85;;;7.80;;
52964;SDS011;42923;53.220;6.528;2024-03-17T12:24:21;8.15;;;7.35;;
52964;SDS011;42923;53.220;6.528;2024-03-17T12:26:54;8.82;;;7.53;;
52964;SDS011;42923;53.220;6.528;2024-03-17T12:31:49;8.88;;;7.32;;
52964;SDS011;42923;53.220;6.528;2024-03-17T12:34:15;8.05;;;7.22;;
52964;SDS011;42923;53.220;6.528;2024-03-17T12:36:41;14.45;;;7.70;;
52964;SDS011;42923;53.220;6.528;2024-03-17T12:39:18;8.93;;;7.13;;
52964;SDS011;42923;53.220;6.528;2024-03-17T12:41:52;8.50;;;7.13;;
52964;SDS011;42923;53.220;6.528;2024-03-17T12:44:27;8.97;;;6.50;;
52964;SDS011;42923;53.220;6.528;2024-03-17T12:46:56;7.13;;;6.40;;
52964;SDS011;42923;53.220;6.528;2024-03-17T12:49:22;9.25;;;7.30;;
52964;SDS011;42923;53.220;6.528;2024-03-17T12:51:51;9.00;;;8.10;;
52964;SDS011;42923;53.220;6.528;2024-03-17T12:54:21;8.73;;;7.82;;
52964;SDS011;42923;53.220;6.528;2024-03-17T12:56:50;10.93;;;7.90;;
52964;SDS011;42923;53.220;6.528;2024-03-17T12:59:41;9.85;;;8.02;;
52964;SDS011;42923;53.220;6.528;2024-03-17T13:02:25;10.10;;;8.57;;
52964;SDS011;42923;53.220;6.528;2024-03-17T13:05:06;11.15;;;9.10;;
52964;SDS011;42923;53.220;6.528;2024-03-17T13:07:32;10.55;;;8.90;;
52964;SDS011;42923;53.220;6.528;2024-03-17T13:09:59;10.33;;;8.70;;
52964;SDS011;42923;53.220;6.528;2024-03-17T13:12:25;9.53;;;8.53;;
52964;SDS011;42923;53.220;6.528;2024-03-17T13:14:51;11.90;;;9.20;;
52964;SDS011;42923;53.220;6.528;2024-03-17T13:17:17;9.47;;;8.30;;
52964;SDS011;42923;53.220;6.528;2024-03-17T13:19:46;10.68;;;8.85;;
52964;SDS011;42923;53.220;6.528;2024-03-17T13:22:12;11.63;;;9.32;;
52964;SDS011;42923;53.220;6.528;2024-03-17T13:24:39;11.30;;;8.52;;
52964;SDS011;42923;53.220;6.528;2024-03-17T13:27:05;12.48;;;9.93;;
52964;SDS011;42923;53.220;6.528;2024-03-17T13:29:34;10.45;;;8.85;;
52964;SDS011;42923;53.220;6.528;2024-03-17T13:32:03;9.25;;;8.23;;
52964;SDS011;42923;53.220;6.528;2024-03-17T13:34:30;12.93;;;9.90;;
52964;SDS011;42923;53.220;6.528;2024-03-17T13:36:56;12.73;;;9.43;;
52964;SDS011;42923;53.220;6.528;2024-03-17T13:39:28;9.67;;;8.67;;
52964;SDS011;42923;53.220;6.528;2024-03-17T13:41:58;10.90;;;8.93;;
52964;SDS011;42923;53.220;6.528;2024-03-17T13:44:31;11.95;;;9.02;;
52964;SDS011;42923;53.220;6.528;2024-03-17T13:46:58;11.52;;;8.57;;
52964;SDS011;42923;53.220;6.528;2024-03-17T13:49:26;10.45;;;8.50;;
52964;SDS011;42923;53.220;6.528;2024-03-17T13:51:53;11.20;;;8.43;;
52964;SDS011;42923;53.220;6.528;2024-03-17T13:54:19;10.00;;;8.73;;
52964;SDS011;42923;53.220;6.528;2024-03-17T13:56:47;8.68;;;7.78;;
52964;SDS011;42923;53.220;6.528;2024-03-17T13:59:13;8.93;;;7.80;;
52964;SDS011;42923;53.220;6.528;2024-03-17T14:01:40;10.85;;;8.50;;
52964;SDS011;42923;53.220;6.528;2024-03-17T14:04:10;8.70;;;7.80;;
52964;SDS011;42923;53.220;6.528;2024-03-17T14:06:40;10.25;;;8.52;;
52964;SDS011;42923;53.220;6.528;2024-03-17T14:09:06;9.23;;;7.70;;
52964;SDS011;42923;53.220;6.528;2024-03-17T14:11:35;10.43;;;8.02;;
52964;SDS011;42923;53.220;6.528;2024-03-17T14:14:01;8.33;;;7.50;;
52964;SDS011;42923;53.220;6.528;2024-03-17T14:16:29;7.25;;;6.47;;
52964;SDS011;42923;53.220;6.528;2024-03-17T14:18:57;8.37;;;7.47;;
52964;SDS011;42923;53.220;6.528;2024-03-17T14:21:22;9.10;;;7.00;;
52964;SDS011;42923;53.220;6.528;2024-03-17T14:23:48;8.93;;;7.27;;
52964;SDS011;42923;53.220;6.528;2024-03-17T14:26:14;8.25;;;7.45;;
52964;SDS011;42923;53.220;6.528;2024-03-17T14:28:39;9.20;;;8.23;;
52964;SDS011;42923;53.220;6.528;2024-03-17T14:31:06;10.07;;;8.23;;
52964;SDS011;42923;53.220;6.528;2024-03-17T14:33:31;9.68;;;8.43;;
52964;SDS011;42923;53.220;6.528;2024-03-17T14:35:57;9.70;;;7.50;;
52964;SDS011;42923;53.220;6.528;2024-03-17T14:38:23;9.90;;;8.77;;
52964;SDS011;42923;53.220;6.528;2024-03-17T14:40:51;9.93;;;8.93;;
52964;SDS011;42923;53.220;6.528;2024-03-17T14:43:17;10.32;;;8.60;;
52964;SDS011;42923;53.220;6.528;2024-03-17T14:45:42;10.40;;;9.40;;
52964;SDS011;42923;53.220;6.528;2024-03-17T14:48:08;11.05;;;8.60;;
52964;SDS011;42923;53.220;6.528;2024-03-17T14:50:38;9.38;;;8.48;;
52964;SDS011;42923;53.220;6.528;2024-03-17T14:53:05;8.83;;;7.93;;
52964;SDS011;42923;53.220;6.528;2024-03-17T14:55:31;9.83;;;8.40;;
52964;SDS011;42923;53.220;6.528;2024-03-17T14:57:56;9.17;;;8.27;;
52964;SDS011;42923;53.220;6.528;2024-03-17T15:00:22;8.80;;;7.87;;
52964;SDS011;42923;53.220;6.528;2024-03-17T15:02:50;10.38;;;8.60;;
52964;SDS011;42923;53.220;6.528;2024-03-17T15:05:16;9.67;;;7.53;;
52964;SDS011;42923;53.220;6.528;2024-03-17T15:07:47;9.63;;;7.57;;
52964;SDS011;42923;53.220;6.528;2024-03-17T15:10:16;7.75;;;6.68;;
52964;SDS011;42923;53.220;6.528;2024-03-17T15:12:45;8.55;;;7.50;;
52964;SDS011;42923;53.220;6.528;2024-03-17T15:15:12;8.73;;;7.85;;